Time;durP1;ratioP1;P1;durP2;ratioP2;P2;SDS_P1;SDS_P2;PMS_P1;PMS_P2;Temp;Humidity;BMP_temperature;BMP_pressure;BME280_temperature;BME280_humidity;BME280_pressure;Samples;Min_cycle;Max_cycle;Signal;HPM_P1;HPM_P2
2021/09/02 00:00:58;;;;;;;17.38;15.93;;;;;;;12.61;92.17;101070.16;10420163;28;20406;-71
2021/09/02 00:05:59;;;;;;;15.68;14.38;;;;;;;12.60;92.02;101068.44;10420011;28;20116;-70
2021/09/02 00:11:01;;;;;;;16.55;15.18;;;;;;;12.48;92.31;101073.97;10419165;28;20041;-71
2021/09/02 00:16:03;;;;;;;15.88;14.68;;;;;;;12.42;92.40;101068.00;10419518;28;20053;-71
2021/09/02 00:21:04;;;;;;;16.55;15.15;;;;;;;12.61;91.93;101062.25;10418957;28;20047;-71
2021/09/02 00:26:06;;;;;;;15.50;14.40;;;;;;;12.38;92.36;101067.19;10417515;28;20049;-71
2021/09/02 00:31:07;;;;;;;16.02;14.82;;;;;;;12.39;92.71;101068.91;10417989;28;20068;-71
2021/09/02 00:36:09;;;;;;;15.48;14.02;;;;;;;12.50;91.45;101064.28;10417142;28;20048;-71
2021/09/02 00:41:10;;;;;;;17.02;15.63;;;;;;;12.40;91.77;101067.19;10418360;28;20410;-71
2021/09/02 00:46:13;;;;;;;17.30;15.80;;;;;;;12.18;93.01;101064.16;10418323;28;20128;-71
2021/09/02 00:51:17;;;;;;;16.60;15.30;;;;;;;12.05;93.56;101067.03;10417871;28;20116;-71
2021/09/02 00:56:20;;;;;;;18.10;16.50;;;;;;;12.02;93.21;101069.72;10417269;28;20471;-71
2021/09/02 01:01:21;;;;;;;17.58;16.08;;;;;;;12.29;93.05;101067.41;10416817;28;20124;-71
2021/09/02 01:06:23;;;;;;;16.85;15.20;;;;;;;12.57;91.16;101075.53;10417116;28;20499;-71
2021/09/02 01:11:25;;;;;;;17.95;16.55;;;;;;;12.39;92.30;101068.91;10415071;28;20045;-71
2021/09/02 01:16:26;;;;;;;18.85;16.88;;;;;;;12.23;94.05;101078.97;10416264;28;20132;-71
2021/09/02 01:21:28;;;;;;;19.90;18.00;;;;;;;12.07;94.77;101067.88;10416075;28;20112;-71
2021/09/02 01:26:30;;;;;;;17.30;15.88;;;;;;;12.06;95.59;101065.28;10416443;28;20041;-71
2021/09/02 01:31:31;;;;;;;17.60;15.93;;;;;;;12.07;95.48;101059.97;10414828;28;20454;-71
2021/09/02 01:36:33;;;;;;;16.15;14.93;;;;;;;12.05;95.48;101053.88;10416631;28;20049;-70
2021/09/02 01:41:35;;;;;;;17.40;15.85;;;;;;;12.14;94.34;101063.34;10415680;28;20099;-70
2021/09/02 01:46:36;;;;;;;18.08;16.42;;;;;;;11.98;95.53;101073.34;10415753;28;20533;-71
2021/09/02 01:51:38;;;;;;;17.45;16.05;;;;;;;12.03;95.76;101068.81;10415307;28;20044;-71
2021/09/02 01:56:39;;;;;;;18.70;17.05;;;;;;;12.06;95.67;101063.50;10415263;28;20045;-71
2021/09/02 02:01:41;;;;;;;17.27;15.82;;;;;;;12.04;95.59;101057.41;10415898;28;20446;-72
2021/09/02 02:06:43;;;;;;;19.50;18.02;;;;;;;12.26;93.88;101071.00;10414663;28;20386;-71
2021/09/02 02:11:44;;;;;;;18.13;16.83;;;;;;;12.03;94.98;101067.97;10415171;28;20045;-71
2021/09/02 02:16:46;;;;;;;18.38;16.98;;;;;;;11.85;95.72;101056.03;10413666;28;20573;-71
2021/09/02 02:21:48;;;;;;;19.77;17.92;;;;;;;11.81;96.18;101056.97;10414789;28;20065;-70
2021/09/02 02:26:49;;;;;;;18.50;16.63;;;;;;;11.74;96.44;101052.75;10414956;28;20094;-71
2021/09/02 02:31:51;;;;;;;18.20;16.60;;;;;;;11.80;97.78;101055.25;10414991;28;20471;-70
2021/09/02 02:36:53;;;;;;;17.35;15.98;;;;;;;11.81;97.39;101043.81;10414724;28;20087;-70
2021/09/02 02:41:54;;;;;;;17.48;15.88;;;;;;;12.05;94.63;101047.72;10412919;28;20104;-71
2021/09/02 02:46:56;;;;;;;17.58;16.17;;;;;;;11.76;95.45;101056.19;10414099;28;20104;-71
2021/09/02 02:51:57;;;;;;;18.52;16.75;;;;;;;11.67;96.55;101056.38;10418953;28;20076;-71
2021/09/02 02:56:59;;;;;;;20.02;18.15;;;;;;;11.66;97.14;101052.88;10420935;28;20057;-71
2021/09/02 03:02:00;;;;;;;17.30;16.10;;;;;;;11.95;96.32;101054.06;10421551;28;20103;-71
2021/09/02 03:07:02;;;;;;;16.80;15.38;;;;;;;12.09;95.22;101054.69;10421385;28;20045;-71
2021/09/02 03:12:04;;;;;;;16.20;14.48;;;;;;;11.80;95.08;101048.19;10421316;28;20495;-70
2021/09/02 03:17:06;;;;;;;16.73;15.52;;;;;;;11.58;95.39;101046.91;10419848;28;20049;-71
2021/09/02 03:22:07;;;;;;;17.27;15.70;;;;;;;11.49;95.84;101057.63;10420880;28;20491;-70
2021/09/02 03:27:09;;;;;;;17.10;15.68;;;;;;;11.39;96.56;101059.56;10420612;28;20111;-70
2021/09/02 03:32:11;;;;;;;15.70;14.43;;;;;;;11.44;96.53;101059.47;10420639;28;20041;-71
2021/09/02 03:37:12;;;;;;;15.20;14.00;;;;;;;11.60;95.38;101060.94;10418639;28;20430;-70
2021/09/02 03:42:14;;;;;;;15.63;14.32;;;;;;;11.62;95.28;101061.75;10420573;28;20430;-70
2021/09/02 03:47:15;;;;;;;14.82;13.63;;;;;;;11.42;94.74;101059.50;10419908;28;20049;-71
2021/09/02 03:52:17;;;;;;;15.60;14.30;;;;;;;11.48;94.79;101069.91;10420028;28;20042;-70
2021/09/02 03:57:18;;;;;;;14.70;13.38;;;;;;;11.29;95.18;101071.16;10420189;28;20148;-71
2021/09/02 04:02:20;;;;;;;14.88;13.65;;;;;;;11.35;94.80;101068.41;10419364;28;20083;-71
2021/09/02 04:07:22;;;;;;;16.27;15.02;;;;;;;11.42;93.74;101064.78;10419133;28;20048;-71
2021/09/02 04:12:23;;;;;;;15.43;14.23;;;;;;;11.60;93.74;101063.56;10419722;28;20510;-70
2021/09/02 04:17:25;;;;;;;18.35;16.17;;;;;;;11.26;94.54;101063.31;10419231;28;20050;-70
2021/09/02 04:22:26;;;;;;;18.50;16.80;;;;;;;11.23;95.81;101060.72;10418856;28;20491;-71
2021/09/02 04:27:29;;;;;;;17.75;16.13;;;;;;;11.21;96.24;101062.53;10417014;28;20061;-71
2021/09/02 04:32:30;;;;;;;18.25;16.55;;;;;;;11.07;97.53;101062.78;10418018;28;20092;-70
2021/09/02 04:37:40;;;;;;;17.63;16.23;;;;;;;11.27;96.67;101058.00;10417855;28;20050;-70
2021/09/02 04:42:42;;;;;;;17.30;16.00;;;;;;;11.36;95.74;101063.09;10417675;28;20041;-71
2021/09/02 04:47:43;;;;;;;17.00;15.70;;;;;;;11.17;96.10;101076.66;10417992;28;20464;-70
2021/09/02 04:52:45;;;;;;;16.45;15.25;;;;;;;11.14;96.78;101071.44;10417597;28;20522;-71
2021/09/02 04:57:46;;;;;;;18.15;16.52;;;;;;;11.48;95.86;101053.25;10418299;28;20056;-71
2021/09/02 05:02:48;;;;;;;17.02;15.35;;;;;;;11.28;96.05;101067.63;10417362;28;20073;-70
2021/09/02 05:07:52;;;;;;;17.55;15.80;;;;;;;11.30;96.71;101065.00;10420391;28;20099;-71
2021/09/02 05:12:54;;;;;;;18.23;16.65;;;;;;;11.47;96.46;101073.47;10418437;28;20084;-71
2021/09/02 05:17:55;;;;;;;18.80;17.23;;;;;;;11.57;97.71;101068.88;10417094;28;20049;-71
2021/09/02 05:22:58;;;;;;;20.23;18.10;;;;;;;11.62;97.70;101072.28;10416660;28;20049;-71
2021/09/02 05:28:00;;;;;;;17.80;16.40;;;;;;;11.85;97.55;101072.72;10417397;28;20041;-70
2021/09/02 05:33:01;;;;;;;19.85;18.02;;;;;;;11.94;96.09;101097.16;10443694;22;20428;-73
2021/09/02 05:38:03;;;;;;;17.48;15.85;;;;;;;12.04;96.01;101091.66;10489584;28;20080;-73
2021/09/02 05:43:05;;;;;;;17.67;16.40;;;;;;;12.04;96.47;101088.13;10503901;28;20410;-72
2021/09/02 05:48:07;;;;;;;17.52;15.85;;;;;;;12.37;94.60;101086.56;10485569;28;20048;-73
2021/09/02 05:53:09;;;;;;;18.23;16.75;;;;;;;12.49;94.43;101102.13;10506170;28;20048;-73
2021/09/02 05:58:11;;;;;;;19.38;17.45;;;;;;;12.56;94.96;101108.97;10509684;28;20098;-72
2021/09/02 06:03:13;;;;;;;27.45;16.10;;;;;;;13.25;91.71;101128.47;10510459;28;20075;-74
2021/09/02 06:08:15;;;;;;;24.95;16.65;;;;;;;13.71;90.24;101118.44;10510091;28;20058;-73
2021/09/02 06:13:17;;;;;;;15.93;14.57;;;;;;;14.34;86.05;101128.97;10508134;28;20033;-73
2021/09/02 06:18:19;;;;;;;17.98;16.45;;;;;;;14.34;85.49;101133.38;10507562;28;20045;-73
2021/09/02 06:23:21;;;;;;;24.17;16.83;;;;;;;14.62;83.74;101131.66;10508084;28;20044;-74
2021/09/02 06:28:23;;;;;;;17.92;16.20;;;;;;;14.61;85.91;101143.19;10513957;28;20498;-74
2021/09/02 06:33:25;;;;;;;16.65;15.02;;;;;;;14.56;86.38;101130.97;10517325;28;20052;-74
2021/09/02 06:38:27;;;;;;;18.48;16.85;;;;;;;14.54;86.71;101138.09;10495900;28;20083;-74
2021/09/02 06:43:29;;;;;;;18.65;17.00;;;;;;;14.59;86.80;101138.84;10511975;28;20041;-73
2021/09/02 06:48:31;;;;;;;19.35;17.70;;;;;;;14.68;87.85;101138.53;10514904;28;20051;-74
2021/09/02 06:53:34;;;;;;;28.75;25.83;;;;;;;15.58;83.29;101132.03;10497051;28;20049;-74
2021/09/02 06:58:36;;;;;;;29.83;26.88;;;;;;;15.75;84.82;101136.78;10516119;28;20131;-73
2021/09/02 07:03:37;;;;;;;32.47;28.90;;;;;;;15.74;83.20;101141.22;10513112;28;20093;-75
2021/09/02 07:08:39;;;;;;;35.67;29.10;;;;;;;15.92;82.77;101149.44;10515170;28;20049;-76
2021/09/02 07:13:41;;;;;;;32.13;28.83;;;;;;;15.97;82.42;101153.66;10515864;28;20037;-75
2021/09/02 07:18:45;;;;;;;38.40;29.13;;;;;;;16.06;82.24;101153.31;10514226;28;20066;-75
2021/09/02 07:23:47;;;;;;;43.03;30.13;;;;;;;16.08;81.02;101147.97;10496665;28;20055;-76
2021/09/02 07:28:52;;;;;;;34.17;27.83;;;;;;;16.10;81.78;101148.75;10513147;28;20041;-75
2021/09/02 07:33:54;;;;;;;37.70;28.00;;;;;;;16.24;80.71;101150.91;10510570;28;20052;-75
2021/09/02 07:38:56;;;;;;;42.53;28.80;;;;;;;16.53;79.40;101153.31;10511073;28;20127;-75
2021/09/02 07:43:58;;;;;;;32.25;26.20;;;;;;;16.73;79.57;101165.84;10494341;28;20041;-75
2021/09/02 07:49:00;;;;;;;28.55;25.73;;;;;;;16.82;77.92;101168.16;10511712;28;20040;-76
2021/09/02 07:54:02;;;;;;;25.95;23.52;;;;;;;16.94;76.26;101164.13;10512347;28;20036;-75
2021/09/02 07:59:04;;;;;;;25.30;22.67;;;;;;;17.04;76.53;101170.78;10495431;28;20056;-75
2021/09/02 08:04:06;;;;;;;35.15;24.38;;;;;;;17.28;75.43;101179.56;10492779;28;20051;-75
2021/09/02 08:09:07;;;;;;;29.98;24.73;;;;;;;17.30;77.40;101182.16;10513280;28;20062;-75
2021/09/02 08:14:09;;;;;;;32.53;24.88;;;;;;;17.71;75.55;101171.53;10510106;28;20545;-76
2021/09/02 08:19:11;;;;;;;25.63;22.92;;;;;;;18.15;72.36;101170.50;10496634;28;20052;-75
2021/09/02 08:24:14;;;;;;;24.30;22.15;;;;;;;18.39;71.15;101167.66;10492637;28;20039;-75
2021/09/02 08:29:16;;;;;;;23.45;21.42;;;;;;;18.39;71.59;101170.31;10510985;28;20391;-76
2021/09/02 08:34:18;;;;;;;25.92;23.33;;;;;;;18.40;71.51;101178.22;10505565;28;20051;-77
2021/09/02 08:39:20;;;;;;;24.08;21.83;;;;;;;18.23;75.67;101180.78;10512953;28;20064;-76
2021/09/02 08:44:25;;;;;;;23.67;21.48;;;;;;;18.54;70.37;101174.91;10495422;28;20413;-76
2021/09/02 08:49:28;;;;;;;22.42;20.10;;;;;;;18.50;70.34;101180.44;10511887;28;20040;-75
2021/09/02 08:54:33;;;;;;;20.77;18.67;;;;;;;18.54;72.27;101168.72;10483184;28;20041;-74
2021/09/02 08:59:35;;;;;;;18.23;16.33;;;;;;;18.82;69.23;101173.66;10513511;28;20071;-75
2021/09/02 09:04:37;;;;;;;17.25;15.75;;;;;;;19.09;67.31;101171.44;10509613;28;20490;-75
2021/09/02 09:09:51;;;;;;;14.73;13.43;;;;;;;19.20;66.37;101184.25;10505216;28;20052;-74
2021/09/02 09:14:55;;;;;;;14.43;13.27;;;;;;;19.20;66.34;101179.75;10504045;28;20044;-74
2021/09/02 09:19:58;;;;;;;11.18;10.27;;;;;;;19.26;63.11;101181.28;10500926;28;20040;-75
2021/09/02 09:25:03;;;;;;;11.43;10.48;;;;;;;19.77;62.83;101180.47;10535880;28;20202;-75
2021/09/02 09:30:11;;;;;;;9.90;8.95;;;;;;;20.22;62.62;101178.09;10464927;28;20068;-75
2021/09/02 09:35:27;;;;;;;10.23;9.32;;;;;;;19.83;61.12;101173.94;10482345;28;20565;-75
2021/09/02 09:40:28;;;;;;;8.88;8.02;;;;;;;20.25;59.20;101176.16;10500000;28;20048;-75
2021/09/02 09:45:43;;;;;;;9.18;8.48;;;;;;;20.29;58.91;101172.38;10503855;28;20123;-75
2021/09/02 09:51:06;;;;;;;9.27;8.10;;;;;;;20.72;58.09;101175.38;10503230;28;20044;-75
2021/09/02 09:56:08;;;;;;;8.88;7.97;;;;;;;20.59;58.25;101172.53;10502456;28;20123;-74
2021/09/02 10:01:12;;;;;;;8.90;7.57;;;;;;;21.43;55.00;101172.22;10502236;28;20098;-74
2021/09/02 10:06:16;;;;;;;8.38;6.65;;;;;;;21.80;56.54;101164.66;10503009;28;20670;-75
2021/09/02 10:11:19;;;;;;;6.97;6.38;;;;;;;22.46;54.38;101157.94;10502500;28;20490;-75
2021/09/02 10:16:21;;;;;;;6.05;5.25;;;;;;;22.09;52.03;101154.81;10502272;28;20048;-75
2021/09/02 10:21:23;;;;;;;6.85;3.72;;;;;;;23.05;49.65;101150.53;10501568;28;20115;-74
2021/09/02 10:26:32;;;;;;;5.05;4.55;;;;;;;23.19;48.79;101155.81;10502634;28;20056;-74
2021/09/02 10:31:34;;;;;;;7.07;5.47;;;;;;;23.16;50.29;101161.41;10483525;28;20064;-74
2021/09/02 10:36:40;;;;;;;4.90;4.50;;;;;;;23.51;49.71;101160.88;10501007;28;20036;-74
2021/09/02 10:41:44;;;;;;;;;;;;;;;23.49;47.91;101158.28;10501673;28;20405;-73
2021/09/02 10:46:49;;;;;;;5.70;5.30;;;;;;;23.20;50.05;101160.25;10501483;28;19984;-74
2021/09/02 10:51:54;;;;;;;4.50;4.05;;;;;;;23.71;47.60;101163.06;10500688;28;20528;-75
2021/09/02 10:57:04;;;;;;;5.80;4.27;;;;;;;23.31;48.29;101162.19;10500193;28;20055;-74
2021/09/02 11:02:08;;;;;;;5.25;4.75;;;;;;;23.59;48.63;101155.81;10499516;28;20044;-75
2021/09/02 11:07:11;;;;;;;4.32;3.90;;;;;;;23.54;50.96;101158.81;10483168;28;20132;-74
2021/09/02 11:12:16;;;;;;;4.43;4.03;;;;;;;23.91;48.15;101151.81;10468001;28;20094;-75
2021/09/02 11:17:17;;;;;;;4.18;3.80;;;;;;;24.08;48.21;101147.94;10508111;28;20045;-75
2021/09/02 11:22:19;;;;;;;6.90;4.20;;;;;;;24.15;47.65;101148.34;10508148;28;20485;-74
2021/09/02 11:27:28;;;;;;;5.15;3.65;;;;;;;23.98;49.00;101140.63;10490824;28;20094;-74
2021/09/02 11:37:45;;;;;;;4.88;4.35;;;;;;;24.17;46.41;101139.22;10318932;28;20050;-69
2021/09/02 11:42:47;;;;;;;4.30;3.90;;;;;;;23.41;48.95;101136.47;10337019;28;20046;-68
2021/09/02 11:47:50;;;;;;;4.78;3.78;;;;;;;23.00;50.42;101134.75;10338440;28;20046;-68
2021/09/02 11:52:53;;;;;;;4.38;3.67;;;;;;;22.07;52.05;101128.16;10338024;28;20058;-68
2021/09/02 11:58:03;;;;;;;4.65;4.07;;;;;;;23.04;50.27;101122.84;10337573;28;20603;-68
2021/09/02 12:03:07;;;;;;;4.15;3.85;;;;;;;23.37;51.68;101119.75;10338484;28;20050;-68
2021/09/02 12:08:11;;;;;;;4.03;3.63;;;;;;;23.47;51.46;101119.97;10336518;28;20046;-67
2021/09/02 12:13:24;;;;;;;4.50;3.72;;;;;;;22.97;50.32;101124.22;10335478;28;20073;-68
2021/09/02 12:19:04;;;;;;;6.07;4.72;;;;;;;22.74;51.83;101117.66;10337518;28;20077;-70
2021/09/02 12:24:07;;;;;;;5.95;4.43;;;;;;;23.47;50.59;101109.22;10253195;28;20074;-68
2021/09/02 12:29:15;;;;;;;3.58;3.28;;;;;;;23.40;48.44;101107.91;10253546;29;20055;-69
2021/09/02 12:34:29;;;;;;;4.00;3.60;;;;;;;23.31;49.30;101098.66;10253860;29;20063;-68
2021/09/02 12:39:33;;;;;;;5.00;4.13;;;;;;;23.26;47.43;101099.97;10252846;29;20576;-68
2021/09/02 12:44:37;;;;;;;4.65;3.30;;;;;;;22.98;47.75;101084.88;10251764;29;20055;-68
2021/09/02 12:49:43;;;;;;;4.90;4.50;;;;;;;22.66;51.68;101096.72;10252018;29;20055;-68
2021/09/02 12:55:03;;;;;;;5.03;4.60;;;;;;;22.28;52.33;101087.63;10252408;29;20089;-68
2021/09/02 13:00:07;;;;;;;4.80;4.32;;;;;;;22.70;52.82;101075.94;10300214;28;20086;-68
2021/09/02 13:05:10;;;;;;;4.55;3.80;;;;;;;22.57;51.86;101075.88;10337761;28;20564;-68
2021/09/02 13:10:14;;;;;;;4.10;3.78;;;;;;;22.74;52.87;101069.41;10336861;28;20451;-68
2021/09/02 13:15:16;;;;;;;4.47;4.13;;;;;;;22.79;51.49;101061.91;10336025;28;20447;-68
2021/09/02 13:20:19;;;;;;;4.80;4.18;;;;;;;22.84;51.57;101062.50;10335828;28;20054;-68
2021/09/02 13:25:22;;;;;;;4.75;4.22;;;;;;;22.93;51.09;101061.03;10334875;28;20054;-67
2021/09/02 13:30:24;;;;;;;4.93;4.30;;;;;;;22.49;52.55;101055.91;10317590;28;20046;-68
2021/09/02 13:35:25;;;;;;;4.75;4.35;;;;;;;22.26;52.49;101052.03;10334579;28;20044;-68
2021/09/02 13:40:27;;;;;;;4.53;4.13;;;;;;;22.16;53.54;101046.41;10336928;28;20110;-68
2021/09/02 13:45:29;;;;;;;5.85;5.25;;;;;;;21.94;53.81;101035.31;10334563;28;20495;-67
2021/09/02 13:50:31;;;;;;;4.55;4.15;;;;;;;21.94;52.41;101038.84;10334187;28;20038;-68
2021/09/02 13:55:32;;;;;;;7.32;4.63;;;;;;;21.99;53.20;101031.38;10333346;28;20496;-68
2021/09/02 14:00:34;;;;;;;4.03;3.72;;;;;;;22.00;52.16;101037.59;10333564;28;20349;-68
2021/09/02 14:05:36;;;;;;;3.40;3.10;;;;;;;22.15;50.74;101029.50;10334976;28;20133;-68
2021/09/02 14:10:37;;;;;;;3.40;3.10;;;;;;;21.91;52.30;101034.59;10333771;28;20050;-69
2021/09/02 14:15:39;;;;;;;4.60;4.18;;;;;;;21.75;52.68;101030.28;10332961;28;20054;-68
2021/09/02 14:20:40;;;;;;;4.53;3.97;;;;;;;21.84;52.68;101019.84;10333183;28;20054;-68
2021/09/02 14:25:42;;;;;;;4.45;3.58;;;;;;;21.69;53.93;101036.00;10316859;28;20054;-69
2021/09/02 14:30:46;;;;;;;5.35;4.07;;;;;;;21.56;53.58;101023.41;10332790;28;20042;-69
2021/09/02 14:35:47;;;;;;;4.35;3.47;;;;;;;21.56;53.91;101023.41;10332239;28;20073;-71
2021/09/02 14:40:49;;;;;;;5.28;3.63;;;;;;;21.79;53.05;101021.97;10332339;28;20038;-68
2021/09/02 14:45:50;;;;;;;5.82;4.13;;;;;;;21.63;53.42;101019.38;10333046;28;20047;-68
2021/09/02 14:50:52;;;;;;;4.75;3.80;;;;;;;21.57;53.28;101022.44;10340411;28;20076;-68
2021/09/02 14:55:53;;;;;;;4.35;3.78;;;;;;;21.53;51.57;101012.88;10340261;28;20046;-68
2021/09/02 15:00:55;;;;;;;5.78;3.67;;;;;;;21.69;53.83;101011.91;10322821;28;20054;-68
2021/09/02 15:05:57;;;;;;;4.00;3.58;;;;;;;21.66;52.10;101002.28;10339060;28;20404;-69
2021/09/02 15:10:59;;;;;;;4.05;3.75;;;;;;;21.98;50.09;101000.22;10337553;28;20412;-69
2021/09/02 15:16:00;;;;;;;4.00;3.60;;;;;;;21.60;53.24;101000.84;10340352;28;20068;-69
2021/09/02 15:21:02;;;;;;;4.20;3.90;;;;;;;21.40;54.63;101007.44;10339546;28;20050;-69
2021/09/02 15:26:03;;;;;;;9.23;3.58;;;;;;;21.42;52.48;100991.28;10339908;28;20082;-68
2021/09/02 15:31:08;;;;;;;4.72;4.13;;;;;;;21.58;52.36;100996.53;10340082;28;20361;-68
2021/09/02 15:36:10;;;;;;;3.57;3.23;;;;;;;21.34;53.07;100998.94;10340182;28;20050;-69
2021/09/02 15:41:12;;;;;;;4.20;3.83;;;;;;;21.34;50.69;100998.94;10338813;28;20085;-68
2021/09/02 15:46:16;;;;;;;3.25;2.95;;;;;;;21.12;51.85;100989.50;10338807;28;20084;-68
2021/09/02 15:51:18;;;;;;;4.68;4.28;;;;;;;21.14;52.55;100984.91;10339084;28;20098;-68
2021/09/02 15:56:20;;;;;;;3.70;3.40;;;;;;;21.02;53.68;100982.13;10321732;28;20492;-67
2021/09/02 16:01:21;;;;;;;5.00;4.60;;;;;;;21.04;53.44;100977.56;10337628;28;20051;-68
2021/09/02 16:06:25;;;;;;;4.10;3.70;;;;;;;21.05;54.08;100976.59;10338528;28;20062;-69
2021/09/02 16:11:27;;;;;;;5.03;4.63;;;;;;;20.92;54.23;100974.66;10338028;28;20038;-68
2021/09/02 16:16:29;;;;;;;5.00;4.30;;;;;;;20.75;54.64;100966.78;10338617;28;20058;-68
2021/09/02 16:21:30;;;;;;;4.85;4.45;;;;;;;20.63;54.86;100965.72;10339012;28;20046;-69
2021/09/02 16:26:32;;;;;;;4.25;3.85;;;;;;;20.72;54.46;100958.09;10321594;28;20050;-67
2021/09/02 16:31:34;;;;;;;4.97;4.55;;;;;;;20.55;56.14;100965.31;10339121;28;20046;-68
2021/09/02 16:36:36;;;;;;;5.03;4.50;;;;;;;20.35;57.36;100950.38;10337446;28;20082;-68
2021/09/02 16:41:37;;;;;;;9.70;8.90;;;;;;;20.26;58.27;100947.41;10337650;28;20070;-68
2021/09/02 16:46:39;;;;;;;4.28;3.95;;;;;;;20.12;57.40;100949.03;10337151;28;20048;-68
2021/09/02 16:51:40;;;;;;;6.10;4.57;;;;;;;20.00;58.61;100944.41;10337153;28;20092;-69
2021/09/02 16:56:42;;;;;;;5.15;4.75;;;;;;;19.96;58.34;100942.84;10336851;28;20118;-68
2021/09/02 17:01:44;;;;;;;6.15;5.47;;;;;;;19.91;59.43;100935.09;10336509;28;20493;-68
2021/09/02 17:06:45;;;;;;;7.03;5.88;;;;;;;19.80;59.84;100942.00;10337590;28;20109;-68
2021/09/02 17:11:47;;;;;;;5.55;5.05;;;;;;;19.74;60.65;100931.66;10336069;28;20034;-69
2021/09/02 17:16:49;;;;;;;5.22;4.82;;;;;;;19.56;60.65;100921.03;10338024;28;20057;-67
2021/09/02 17:21:53;;;;;;;5.28;4.88;;;;;;;19.39;61.32;100929.97;10335960;28;20034;-68
2021/09/02 17:26:55;;;;;;;6.40;5.25;;;;;;;19.24;61.66;100919.25;10319543;28;20407;-68
2021/09/02 17:31:57;;;;;;;4.45;4.15;;;;;;;19.11;62.59;100914.56;10335270;28;20050;-69
2021/09/02 17:37:00;;;;;;;5.22;4.82;;;;;;;18.99;63.64;100912.59;10401129;23;20045;-77
2021/09/02 17:42:03;;;;;;;4.72;4.32;;;;;;;18.95;64.56;100907.47;10435634;28;20108;-76
2021/09/02 17:47:08;;;;;;;5.07;4.68;;;;;;;18.80;65.23;100912.66;10419806;28;20108;-75
2021/09/02 17:52:11;;;;;;;4.43;4.03;;;;;;;18.58;66.42;100906.69;10416601;28;20065;-77
2021/09/02 17:57:13;;;;;;;6.93;5.05;;;;;;;18.58;67.88;100920.00;10414158;28;20045;-77
2021/09/02 18:02:15;;;;;;;7.15;6.53;;;;;;;18.40;68.49;100933.31;10433878;28;20038;-76
2021/09/02 18:07:18;;;;;;;7.57;6.97;;;;;;;18.31;69.34;100928.44;10433828;28;20041;-76
2021/09/02 18:12:20;;;;;;;10.93;10.02;;;;;;;18.25;69.42;100933.22;10435401;28;20057;-77
2021/09/02 18:17:22;;;;;;;13.40;12.18;;;;;;;18.06;70.97;100938.56;10417220;28;20113;-76
2021/09/02 18:22:25;;;;;;;12.35;11.27;;;;;;;17.86;71.55;100939.53;10426768;28;20083;-77
2021/09/02 18:27:31;;;;;;;10.90;9.90;;;;;;;17.86;71.45;100939.53;10428296;28;20044;-75
2021/09/02 18:32:40;;;;;;;8.43;7.25;;;;;;;17.66;72.60;100935.09;10395941;28;20053;-76
2021/09/02 18:37:50;;;;;;;6.88;6.05;;;;;;;17.59;73.10;100934.53;10410592;28;20041;-76
2021/09/02 18:42:57;;;;;;;7.32;6.80;;;;;;;17.44;73.25;100932.56;10411960;28;20057;-76
2021/09/02 18:48:04;;;;;;;6.90;5.72;;;;;;;17.21;74.34;100930.97;10430259;28;20045;-75
2021/09/02 18:53:10;;;;;;;7.30;6.68;;;;;;;17.17;74.49;100931.19;10412345;28;20117;-76
2021/09/02 18:58:12;;;;;;;7.20;6.60;;;;;;;16.93;75.44;100939.31;10411960;28;20046;-77
2021/09/02 19:03:15;;;;;;;6.78;6.28;;;;;;;17.15;74.65;100934.78;10413329;28;20091;-75
2021/09/02 19:08:23;;;;;;;7.28;6.68;;;;;;;17.18;74.39;100927.59;10412539;28;20045;-76
2021/09/02 19:13:29;;;;;;;6.70;6.10;;;;;;;16.85;75.88;100926.34;10411779;28;20041;-75
2021/09/02 19:18:34;;;;;;;7.07;6.47;;;;;;;16.62;76.88;100935.28;10396194;28;20060;-75
2021/09/02 19:23:36;;;;;;;7.45;6.85;;;;;;;16.46;77.74;100922.72;10409168;28;20395;-75
2021/09/02 19:28:49;;;;;;;7.53;6.82;;;;;;;16.32;78.61;100921.50;10409168;28;20045;-76
2021/09/02 19:33:51;;;;;;;8.38;7.57;;;;;;;16.22;79.02;100927.25;10410214;28;20499;-76
2021/09/02 19:38:54;;;;;;;8.52;7.93;;;;;;;16.21;78.73;100928.19;10399058;28;20487;-76
2021/09/02 19:43:56;;;;;;;8.15;7.45;;;;;;;16.20;78.58;100929.09;10398932;28;20072;-76
2021/09/02 19:48:59;;;;;;;7.85;7.25;;;;;;;16.30;79.63;100930.47;10412926;28;20507;-75
2021/09/02 19:54:19;;;;;;;9.50;8.70;;;;;;;16.50;78.69;100924.31;10412333;28;20033;-75
2021/09/02 19:59:21;;;;;;;9.63;8.70;;;;;;;16.43;79.05;100936.13;10412258;28;20461;-75
2021/09/02 20:04:30;;;;;;;8.50;7.88;;;;;;;16.21;79.85;100936.16;10395386;28;20046;-75
2021/09/02 20:09:38;;;;;;;9.77;8.98;;;;;;;16.06;80.39;100924.34;10411754;28;20053;-75
2021/09/02 20:14:42;;;;;;;9.90;9.20;;;;;;;15.84;81.73;100935.81;10410817;28;20124;-76
2021/09/02 20:19:44;;;;;;;11.32;10.32;;;;;;;15.56;83.03;100930.69;10408813;28;20049;-75
2021/09/02 20:24:47;;;;;;;11.10;10.30;;;;;;;15.43;84.18;100928.56;10409583;28;20061;-75
2021/09/02 20:29:49;;;;;;;9.45;8.70;;;;;;;15.50;83.69;100927.44;10393082;28;20144;-75
2021/09/02 20:34:51;;;;;;;8.65;7.97;;;;;;;15.48;83.25;100921.31;10430035;28;20038;-76
2021/09/02 20:40:04;;;;;;;11.20;10.40;;;;;;;15.48;83.95;100930.13;10428223;28;20132;-76
2021/09/02 20:45:10;;;;;;;14.30;13.07;;;;;;;15.60;84.33;100926.16;10428280;28;20037;-76
2021/09/02 20:50:19;;;;;;;;;;;;;;;15.50;83.77;100917.69;10411039;28;20388;-76
2021/09/02 20:55:22;;;;;;;13.45;12.18;;;;;;;15.52;83.30;100923.78;10413360;28;19921;-76
2021/09/02 21:00:24;;;;;;;13.07;11.98;;;;;;;15.43;83.49;100924.13;10429595;28;20595;-75
2021/09/02 21:05:31;;;;;;;11.02;10.23;;;;;;;15.20;84.88;100922.34;10425778;28;20120;-75
2021/09/02 21:10:36;;;;;;;11.35;10.45;;;;;;;15.21;84.97;100923.19;10425335;28;20103;-75
2021/09/02 21:15:43;;;;;;;11.88;10.88;;;;;;;15.05;85.25;100929.06;10426136;28;20056;-74
2021/09/02 21:20:48;;;;;;;;;;;;;;;15.21;85.14;100929.34;10407190;28;20045;-75
2021/09/02 21:25:49;;;;;;;11.30;10.50;;;;;;;15.31;84.41;100935.19;10405598;28;20389;-75
2021/09/02 21:31:07;;;;;;;11.32;10.52;;;;;;;14.82;86.58;100939.59;10404260;28;20454;-74
2021/09/02 21:36:12;;;;;;;9.48;8.77;;;;;;;14.99;86.06;100939.00;10421338;28;20067;-75
2021/09/02 21:41:16;;;;;;;9.82;9.07;;;;;;;14.91;86.53;100939.25;10421678;28;20057;-74
2021/09/02 21:46:21;;;;;;;9.68;8.98;;;;;;;14.59;87.68;100941.25;10421058;28;20045;-75
2021/09/02 21:51:23;;;;;;;10.15;9.20;;;;;;;14.79;87.02;100940.56;10403802;28;20057;-75
2021/09/02 21:56:27;;;;;;;12.50;8.75;;;;;;;14.85;86.41;100942.13;10421269;28;20375;-75
2021/09/02 22:01:29;;;;;;;10.68;9.95;;;;;;;14.53;87.39;100941.47;10388615;28;20045;-75
2021/09/02 22:06:31;;;;;;;10.55;9.68;;;;;;;14.60;88.12;100950.91;10420812;28;20049;-74
2021/09/02 22:11:56;;;;;;;10.18;9.38;;;;;;;14.56;87.94;100943.97;10404566;28;20045;-74
2021/09/02 22:17:24;;;;;;;9.70;9.00;;;;;;;14.32;88.78;100953.56;10421082;28;20084;-75
2021/09/02 22:22:28;;;;;;;10.50;9.80;;;;;;;14.68;87.78;100939.22;10415495;28;20057;-75
2021/09/02 22:27:30;;;;;;;10.57;9.77;;;;;;;14.60;87.55;100932.38;10421999;28;20495;-74
2021/09/02 22:32:35;;;;;;;10.45;9.65;;;;;;;14.33;87.81;100925.34;10419451;28;20045;-75
2021/09/02 22:37:38;;;;;;;9.02;8.45;;;;;;;14.27;88.34;100917.63;10401759;28;20046;-74
2021/09/02 22:42:40;;;;;;;10.30;9.60;;;;;;;14.41;88.49;100904.81;10402056;28;20042;-74
2021/09/02 22:47:45;;;;;;;10.30;9.40;;;;;;;14.36;88.83;100906.75;10418900;28;20053;-76
2021/09/02 22:52:48;;;;;;;10.23;9.52;;;;;;;14.24;88.89;100913.28;10385386;28;20072;-75
2021/09/02 22:57:51;;;;;;;9.60;9.00;;;;;;;14.07;88.91;100908.53;10402299;28;20056;-75
2021/09/02 23:02:53;;;;;;;11.20;10.40;;;;;;;13.97;88.94;100906.25;10400723;28;20578;-74